Time;durP1;ratioP1;P1;durP2;ratioP2;P2;SDS_P1;SDS_P2;PMS_P1;PMS_P2;Temp;Humidity;BMP_temperature;BMP_pressure;BME280_temperature;BME280_humidity;BME280_pressure;Samples;Min_cycle;Max_cycle;Signal;HPM_P1;HPM_P2
2022/09/26 00:00:04;;;;;;;3.00;1.60;;;;;17.50;100736.00;;;;5008963;28;20279;-78
2022/09/26 00:02:31;;;;;;;2.05;1.70;;;;;17.50;100737.00;;;;5008562;28;20291;-77
2022/09/26 00:04:59;;;;;;;2.78;1.73;;;;;17.50;100734.00;;;;5008298;28;20220;-78
2022/09/26 00:07:28;;;;;;;3.10;1.60;;;;;17.50;100741.00;;;;5008855;28;20205;-77
2022/09/26 00:09:55;;;;;;;2.70;1.50;;;;;17.60;100752.00;;;;5007450;28;20211;-79
2022/09/26 00:12:23;;;;;;;4.80;1.80;;;;;17.60;100738.00;;;;5006858;28;20197;-78
2022/09/26 00:14:51;;;;;;;1.98;1.63;;;;;17.60;100738.00;;;;5005575;28;20224;-78
2022/09/26 00:17:18;;;;;;;2.92;1.50;;;;;17.60;100735.00;;;;4998949;28;20205;-77
2022/09/26 00:19:45;;;;;;;3.75;1.45;;;;;17.60;100726.00;;;;5007805;28;20208;-78
2022/09/26 00:22:12;;;;;;;2.72;1.50;;;;;17.60;100733.00;;;;5008505;28;20205;-78
2022/09/26 00:24:40;;;;;;;3.33;1.90;;;;;17.70;100722.00;;;;5007299;28;20193;-77
2022/09/26 00:27:07;;;;;;;3.95;1.90;;;;;17.70;100731.00;;;;5007166;28;20220;-77
2022/09/26 00:29:36;;;;;;;3.13;1.30;;;;;17.70;100721.00;;;;5006785;28;20204;-78
2022/09/26 00:32:03;;;;;;;3.53;1.30;;;;;17.70;100723.00;;;;5014722;28;20208;-78
2022/09/26 00:34:30;;;;;;;1.58;1.30;;;;;17.70;100712.00;;;;5009867;28;20236;-79
2022/09/26 00:36:57;;;;;;;2.05;1.20;;;;;17.70;100696.00;;;;5006652;28;20204;-77
2022/09/26 00:39:25;;;;;;;3.33;1.08;;;;;17.70;100680.00;;;;5016302;28;20193;-78
2022/09/26 00:41:52;;;;;;;2.72;1.23;;;;;17.70;100660.00;;;;5006461;28;20220;-78
2022/09/26 00:44:43;;;;;;;0.90;0.88;;;;;17.60;100657.00;;;;5005008;28;20185;-78
2022/09/26 00:47:25;;;;;;;1.55;1.05;;;;;17.70;100644.00;;;;4999255;28;20212;-78
2022/09/26 00:49:57;;;;;;;1.95;0.88;;;;;17.80;100633.00;;;;5007335;28;20292;-78
2022/09/26 00:52:29;;;;;;;5.18;1.15;;;;;17.80;100632.00;;;;5000027;28;20200;-77
2022/09/26 00:55:00;;;;;;;3.28;1.08;;;;;17.80;100634.00;;;;5007446;28;20725;-78
2022/09/26 00:57:32;;;;;;;1.30;1.15;;;;;17.80;100626.00;;;;5004807;28;20200;-78
2022/09/26 01:00:05;;;;;;;2.78;0.80;;;;;17.80;100618.00;;;;5005904;28;20229;-78
2022/09/26 01:02:32;;;;;;;1.33;0.80;;;;;17.90;100618.00;;;;5003980;28;20695;-78
2022/09/26 01:05:00;;;;;;;2.28;0.60;;;;;17.90;100611.00;;;;5006035;28;20224;-77
2022/09/26 01:07:29;;;;;;;3.13;1.10;;;;;17.90;100607.00;;;;5007691;28;20193;-77
2022/09/26 01:09:57;;;;;;;4.30;1.10;;;;;17.90;100601.00;;;;5005694;28;20200;-77
2022/09/26 01:12:25;;;;;;;1.83;1.08;;;;;17.90;100591.00;;;;5006940;28;20197;-78
2022/09/26 01:14:54;;;;;;;3.05;1.13;;;;;17.90;100569.00;;;;5004576;28;20701;-78
2022/09/26 01:17:24;;;;;;;1.30;1.10;;;;;17.90;100565.00;;;;5006178;28;20200;-78
2022/09/26 01:20:06;;;;;;;1.80;0.90;;;;;17.80;100563.00;;;;5005868;28;20673;-78
2022/09/26 01:23:06;;;;;;;1.10;0.95;;;;;17.80;100560.00;;;;5006995;28;20204;-77
2022/09/26 01:25:51;;;;;;;1.38;1.08;;;;;17.90;100550.00;;;;5004998;28;20658;-78
2022/09/26 01:28:42;;;;;;;1.52;1.10;;;;;17.90;100538.00;;;;5004545;28;20201;-78
2022/09/26 01:31:19;;;;;;;1.88;1.42;;;;;17.90;100537.00;;;;4997994;28;20208;-79
2022/09/26 01:33:56;;;;;;;1.70;1.20;;;;;17.90;100532.00;;;;5005816;28;20239;-78
2022/09/26 01:36:50;;;;;;;2.08;1.30;;;;;17.80;100520.00;;;;5005183;28;20763;-78
2022/09/26 01:39:31;;;;;;;1.60;1.10;;;;;17.80;100520.00;;;;5005663;28;20212;-78
2022/09/26 01:42:14;;;;;;;2.70;1.20;;;;;17.80;100519.00;;;;5002409;28;20648;-77
2022/09/26 01:44:47;;;;;;;1.92;1.30;;;;;17.90;100520.00;;;;5003527;28;20223;-78
2022/09/26 01:47:22;;;;;;;2.42;1.15;;;;;17.90;100522.00;;;;5008166;28;20209;-79
2022/09/26 01:49:56;;;;;;;1.27;0.90;;;;;17.80;100515.00;;;;5006927;28;20204;-78
2022/09/26 01:52:32;;;;;;;1.85;1.13;;;;;17.80;100509.00;;;;5006492;28;20247;-78
2022/09/26 01:55:07;;;;;;;1.60;1.00;;;;;17.80;100507.00;;;;5005000;28;20224;-78
2022/09/26 01:57:39;;;;;;;1.60;1.10;;;;;17.80;100499.00;;;;5005846;28;20685;-79
2022/09/26 02:00:11;;;;;;;3.45;1.35;;;;;17.80;100505.00;;;;5004153;28;20228;-79
2022/09/26 02:02:43;;;;;;;5.28;1.33;;;;;17.80;100494.00;;;;5003339;28;20198;-78
2022/09/26 02:05:18;;;;;;;2.20;1.23;;;;;17.80;100483.00;;;;5004837;28;20213;-79
2022/09/26 02:07:51;;;;;;;3.47;1.42;;;;;17.80;100481.00;;;;5004533;28;20200;-77
2022/09/26 02:10:22;;;;;;;3.17;1.50;;;;;17.80;100478.00;;;;5008248;28;20208;-78
2022/09/26 02:13:01;;;;;;;2.58;1.50;;;;;17.80;100471.00;;;;5008588;28;20208;-78
2022/09/26 02:15:31;;;;;;;1.83;1.30;;;;;17.80;100468.00;;;;5011412;28;20722;-79
2022/09/26 02:18:05;;;;;;;1.90;1.30;;;;;17.80;100466.00;;;;5008684;28;20208;-78
2022/09/26 02:20:37;;;;;;;1.77;1.38;;;;;17.80;100469.00;;;;5010645;28;20247;-79
2022/09/26 02:23:05;;;;;;;20.65;2.03;;;;;17.80;100469.00;;;;5010587;28;20220;-78
2022/09/26 02:25:34;;;;;;;2.05;1.40;;;;;17.80;100461.00;;;;5010593;28;20212;-78
2022/09/26 02:28:02;;;;;;;4.00;1.35;;;;;17.80;100452.00;;;;5002413;28;20209;-78
2022/09/26 02:30:30;;;;;;;3.38;1.75;;;;;17.80;100443.00;;;;5007251;28;20201;-78
2022/09/26 02:32:59;;;;;;;2.75;1.50;;;;;17.80;100451.00;;;;5010273;28;20204;-79
2022/09/26 02:38:12;;;;;;;2.78;1.42;;;;;17.70;100427.00;;;;5011554;28;20355;-79
2022/09/26 02:40:49;;;;;;;2.72;1.35;;;;;17.70;100419.00;;;;5009609;28;20208;-78
2022/09/26 02:43:38;;;;;;;3.88;1.63;;;;;17.60;100415.00;;;;5005014;28;20212;-78
2022/09/26 02:46:19;;;;;;;4.00;2.13;;;;;17.60;100422.00;;;;5005806;28;20201;-78
2022/09/26 02:49:02;;;;;;;7.15;3.03;;;;;17.60;100412.00;;;;5010292;28;20216;-78
2022/09/26 02:51:49;;;;;;;2.95;1.63;;;;;17.60;100410.00;;;;5009099;28;20193;-78
2022/09/26 02:54:23;;;;;;;2.42;2.15;;;;;17.60;100399.00;;;;5009076;28;20275;-78
2022/09/26 02:57:10;;;;;;;2.85;2.20;;;;;17.60;100393.00;;;;5005308;28;20212;-78
2022/09/26 02:59:46;;;;;;;3.97;2.35;;;;;17.60;100395.00;;;;5018108;28;20610;-78
2022/09/26 03:02:16;;;;;;;3.70;1.85;;;;;17.60;100391.00;;;;5007238;28;20223;-79
2022/09/26 03:04:52;;;;;;;3.50;1.70;;;;;17.60;100387.00;;;;5008012;28;20204;-78
2022/09/26 03:07:25;;;;;;;4.57;2.28;;;;;17.60;100378.00;;;;5009638;28;20573;-78
2022/09/26 03:09:54;;;;;;;4.95;2.15;;;;;17.60;100368.00;;;;5009501;28;20205;-78
2022/09/26 03:12:24;;;;;;;3.85;2.30;;;;;17.60;100364.00;;;;5007761;28;20200;-78
2022/09/26 03:14:53;;;;;;;3.00;2.30;;;;;17.60;100362.00;;;;5009075;28;20231;-78
2022/09/26 03:17:21;;;;;;;3.88;1.80;;;;;17.50;100365.00;;;;5009314;28;20200;-78
2022/09/26 03:19:57;;;;;;;5.85;2.75;;;;;17.50;100366.00;;;;5007113;28;20201;-77
2022/09/26 03:22:25;;;;;;;2.50;1.90;;;;;17.50;100360.00;;;;5008118;28;20205;-78
2022/09/26 03:24:52;;;;;;;2.95;1.85;;;;;17.50;100357.00;;;;5007271;28;20267;-79
2022/09/26 03:27:20;;;;;;;2.08;1.65;;;;;17.50;100352.00;;;;5006744;28;20205;-78
2022/09/26 03:29:48;;;;;;;4.25;2.03;;;;;17.50;100351.00;;;;5007346;28;20201;-77
2022/09/26 03:32:15;;;;;;;3.13;2.10;;;;;17.50;100340.00;;;;5007127;28;20710;-79
2022/09/26 03:34:42;;;;;;;4.40;2.28;;;;;17.50;100333.00;;;;5004878;28;20217;-78
2022/09/26 03:37:12;;;;;;;3.22;2.22;;;;;17.50;100330.00;;;;4992939;28;20198;-79
2022/09/26 03:39:39;;;;;;;4.05;2.30;;;;;17.50;100310.00;;;;5004333;28;20227;-78
2022/09/26 03:42:06;;;;;;;3.38;1.80;;;;;17.50;100307.00;;;;5008161;28;20204;-78
2022/09/26 03:44:34;;;;;;;5.40;1.95;;;;;17.40;100310.00;;;;5008107;28;20602;-78
2022/09/26 03:47:02;;;;;;;4.20;1.95;;;;;17.40;100301.00;;;;5009111;28;20690;-78
2022/09/26 03:49:29;;;;;;;8.35;2.35;;;;;17.40;100299.00;;;;5007459;28;20197;-78
2022/09/26 03:51:56;;;;;;;2.60;1.90;;;;;17.40;100299.00;;;;5008828;28;20201;-78
2022/09/26 03:54:25;;;;;;;3.97;1.83;;;;;17.40;100293.00;;;;4998399;28;20593;-78
2022/09/26 03:56:54;;;;;;;2.10;1.80;;;;;17.40;100288.00;;;;5006231;28;20212;-78
2022/09/26 03:59:21;;;;;;;4.80;2.17;;;;;17.40;100269.00;;;;5008503;28;20236;-78
2022/09/26 04:01:49;;;;;;;3.55;2.10;;;;;17.40;100267.00;;;;5007285;28;20688;-78
2022/09/26 04:04:16;;;;;;;3.63;1.70;;;;;17.30;100253.00;;;;5006242;28;20213;-78
2022/09/26 04:06:43;;;;;;;4.90;2.30;;;;;17.30;100253.00;;;;5005383;28;20216;-77
2022/09/26 04:09:11;;;;;;;4.93;2.55;;;;;17.30;100252.00;;;;5001613;28;20251;-78
2022/09/26 04:11:39;;;;;;;3.63;1.60;;;;;17.30;100245.00;;;;5002888;28;20216;-77
2022/09/26 04:14:09;;;;;;;3.83;2.00;;;;;17.30;100238.00;;;;5008174;28;20196;-78
2022/09/26 04:16:37;;;;;;;3.55;2.15;;;;;17.30;100229.00;;;;5009059;28;20208;-78
2022/09/26 04:19:04;;;;;;;2.22;1.98;;;;;17.30;100226.00;;;;5007895;28;20201;-77
2022/09/26 04:21:34;;;;;;;4.57;1.92;;;;;17.30;100215.00;;;;5007418;28;20201;-78
2022/09/26 04:24:02;;;;;;;2.05;1.45;;;;;17.30;100208.00;;;;5008395;28;20312;-78
2022/09/26 04:26:29;;;;;;;2.78;1.60;;;;;17.20;100197.00;;;;5004731;28;20197;-77
2022/09/26 04:28:58;;;;;;;2.72;1.35;;;;;17.20;100188.00;;;;5005773;28;20216;-78
2022/09/26 04:31:27;;;;;;;3.95;1.60;;;;;17.20;100180.00;;;;5007579;28;20668;-78
2022/09/26 04:33:54;;;;;;;4.55;1.40;;;;;17.20;100176.00;;;;5008009;28;20189;-77
2022/09/26 04:36:22;;;;;;;4.18;1.60;;;;;17.20;100184.00;;;;5006238;28;20636;-77
2022/09/26 04:38:50;;;;;;;2.55;1.13;;;;;17.20;100162.00;;;;5008289;28;20201;-77
2022/09/26 04:41:19;;;;;;;2.20;1.48;;;;;17.20;100162.00;;;;5007297;28;20201;-77
2022/09/26 04:43:46;;;;;;;1.67;1.20;;;;;17.20;100162.00;;;;5005382;28;20695;-77
2022/09/26 04:46:17;;;;;;;3.70;1.40;;;;;17.20;100164.00;;;;5006257;28;20567;-77
2022/09/26 04:48:45;;;;;;;1.45;1.27;;;;;17.20;100157.00;;;;4997653;28;20205;-77
2022/09/26 04:51:14;;;;;;;3.35;1.30;;;;;17.20;100155.00;;;;5005856;28;20204;-78
2022/09/26 04:53:42;;;;;;;5.68;1.70;;;;;17.20;100155.00;;;;5006710;28;20189;-77
2022/09/26 04:56:12;;;;;;;2.55;1.10;;;;;17.20;100147.00;;;;5008868;28;20221;-77
2022/09/26 04:58:40;;;;;;;2.05;1.05;;;;;17.20;100149.00;;;;5004310;28;20315;-77
2022/09/26 05:01:10;;;;;;;1.95;1.23;;;;;17.20;100145.00;;;;5005515;28;20215;-78
2022/09/26 05:03:40;;;;;;;2.28;1.20;;;;;17.20;100138.00;;;;5007290;28;20205;-78
2022/09/26 05:06:09;;;;;;;1.30;1.20;;;;;17.20;100132.00;;;;5004152;28;20221;-78
2022/09/26 05:08:37;;;;;;;3.60;1.67;;;;;17.20;100125.00;;;;5003131;28;20197;-78
2022/09/26 05:11:05;;;;;;;2.90;1.42;;;;;17.20;100123.00;;;;5006317;28;20434;-77
2022/09/26 05:13:32;;;;;;;4.00;1.13;;;;;17.20;100118.00;;;;5004458;28;20459;-77
2022/09/26 05:16:01;;;;;;;3.53;1.10;;;;;17.30;100109.00;;;;5006535;28;20781;-76
2022/09/26 05:18:29;;;;;;;6.40;1.38;;;;;17.20;100110.00;;;;5002170;28;20669;-77
2022/09/26 05:20:58;;;;;;;1.63;1.00;;;;;17.20;100096.00;;;;5006577;28;20203;-77
2022/09/26 05:26:20;;;;;;;1.20;1.10;;;;;17.20;100092.00;;;;5003540;28;20211;-77
2022/09/26 05:28:50;;;;;;;3.40;1.30;;;;;17.20;100093.00;;;;4996714;28;20732;-77
2022/09/26 05:31:18;;;;;;;1.42;1.05;;;;;17.20;100086.00;;;;5002778;28;20193;-80
2022/09/26 05:33:46;;;;;;;2.72;1.38;;;;;17.20;100084.00;;;;5004958;28;20573;-76
2022/09/26 05:36:15;;;;;;;2.90;1.55;;;;;17.20;100090.00;;;;5004003;28;20228;-78
2022/09/26 05:38:43;;;;;;;2.22;1.25;;;;;17.20;100083.00;;;;5004821;28;20204;-80
2022/09/26 05:41:09;;;;;;;0.82;0.73;;;;;17.20;100076.00;;;;5005079;28;20201;-80
2022/09/26 05:43:37;;;;;;;1.52;0.93;;;;;17.20;100083.00;;;;5005525;28;20229;-82
2022/09/26 05:46:06;;;;;;;1.95;1.35;;;;;17.20;100064.00;;;;5008675;28;20201;-77
2022/09/26 05:48:35;;;;;;;2.55;1.10;;;;;17.20;100068.00;;;;5009019;28;20197;-76
2022/09/26 05:51:04;;;;;;;3.83;1.23;;;;;17.20;100064.00;;;;5007038;28;20247;-77
2022/09/26 05:53:33;;;;;;;2.00;1.17;;;;;17.10;100058.00;;;;5005091;28;20662;-76
2022/09/26 05:56:00;;;;;;;2.70;1.25;;;;;17.10;100053.00;;;;4999362;28;20247;-77
2022/09/26 05:58:31;;;;;;;1.80;1.20;;;;;17.10;100039.00;;;;5010941;28;20236;-76
2022/09/26 06:01:02;;;;;;;2.30;0.95;;;;;17.10;100050.00;;;;4996863;28;20205;-77
2022/09/26 06:03:33;;;;;;;2.63;1.33;;;;;17.10;100040.00;;;;5006573;28;20569;-79
2022/09/26 06:06:05;;;;;;;1.52;1.15;;;;;17.10;100039.00;;;;5005968;28;20971;-76
2022/09/26 06:08:35;;;;;;;3.45;1.70;;;;;17.10;100031.00;;;;5008115;28;20202;-77
2022/09/26 06:11:04;;;;;;;3.70;1.42;;;;;17.20;100016.00;;;;5010266;28;20204;-78
2022/09/26 06:13:32;;;;;;;2.13;1.20;;;;;17.10;100011.00;;;;5009046;28;20796;-77
2022/09/26 06:16:04;;;;;;;1.92;1.30;;;;;17.10;100004.00;;;;5011953;28;20228;-77
2022/09/26 06:18:31;;;;;;;2.53;1.48;;;;;17.10;99997.00;;;;5010394;28;20701;-78
2022/09/26 06:21:02;;;;;;;1.95;1.08;;;;;17.10;99996.00;;;;5010786;28;20205;-78
2022/09/26 06:23:30;;;;;;;1.42;1.20;;;;;17.10;99992.00;;;;5010198;28;20201;-78
2022/09/26 06:25:59;;;;;;;0.80;0.70;;;;;17.10;99991.00;;;;5003832;28;20293;-76
2022/09/26 06:28:27;;;;;;;2.22;1.27;;;;;17.10;99986.00;;;;4993698;28;20710;-77
2022/09/26 06:30:55;;;;;;;2.72;0.93;;;;;17.10;99968.00;;;;5011732;28;20205;-77
2022/09/26 06:33:23;;;;;;;0.93;0.88;;;;;17.20;99972.00;;;;5010188;28;20193;-77
2022/09/26 06:36:00;;;;;;;3.05;1.02;;;;;17.10;99962.00;;;;5011191;28;20710;-77
2022/09/26 06:38:28;;;;;;;2.65;1.25;;;;;17.20;99958.00;;;;5008367;28;20261;-77
2022/09/26 06:40:55;;;;;;;1.90;1.00;;;;;17.20;99947.00;;;;5011142;28;20568;-77
2022/09/26 06:43:24;;;;;;;3.42;1.00;;;;;17.20;99942.00;;;;5000572;28;20197;-77
2022/09/26 06:45:52;;;;;;;3.83;1.13;;;;;17.20;99931.00;;;;5005676;28;20204;-77
2022/09/26 06:48:21;;;;;;;2.28;1.17;;;;;17.20;99934.00;;;;5010711;28;20209;-78
2022/09/26 06:50:51;;;;;;;3.95;1.20;;;;;17.10;99915.00;;;;5010360;28;20197;-79
2022/09/26 06:53:19;;;;;;;1.83;0.95;;;;;17.20;99913.00;;;;5007913;28;20208;-77
2022/09/26 06:55:46;;;;;;;2.63;1.40;;;;;17.20;99910.00;;;;4992219;28;20256;-78
2022/09/26 06:58:13;;;;;;;3.47;1.17;;;;;17.20;99904.00;;;;5006221;28;20227;-78
2022/09/26 07:00:42;;;;;;;3.10;1.08;;;;;17.20;99897.00;;;;5002981;28;20207;-78
2022/09/26 07:03:10;;;;;;;3.03;1.30;;;;;17.20;99902.00;;;;5009388;28;20204;-78
2022/09/26 07:05:38;;;;;;;2.00;0.98;;;;;17.20;99894.00;;;;5006782;28;20217;-78
2022/09/26 07:08:06;;;;;;;2.10;0.68;;;;;17.20;99892.00;;;;5008578;28;20211;-78
2022/09/26 07:10:34;;;;;;;1.55;1.10;;;;;17.20;99891.00;;;;5007300;28;20559;-79
2022/09/26 07:13:04;;;;;;;2.88;1.23;;;;;17.30;99884.00;;;;5005647;28;20198;-79
2022/09/26 07:15:32;;;;;;;2.28;1.17;;;;;17.30;99888.00;;;;5003464;28;20237;-77
2022/09/26 07:18:02;;;;;;;1.40;0.98;;;;;17.30;99881.00;;;;5003519;28;20593;-79
2022/09/26 07:20:32;;;;;;;1.75;1.40;;;;;17.30;99867.00;;;;5008401;28;20255;-81
2022/09/26 07:23:01;;;;;;;2.00;1.35;;;;;17.30;99876.00;;;;5007777;28;20209;-79
2022/09/26 07:25:30;;;;;;;2.85;1.50;;;;;17.40;99871.00;;;;5009167;28;20216;-79
2022/09/26 07:27:58;;;;;;;4.20;1.73;;;;;17.40;99877.00;;;;5006850;28;20291;-81
2022/09/26 07:30:27;;;;;;;3.80;1.40;;;;;17.40;99879.00;;;;5006627;28;20671;-79
2022/09/26 07:32:59;;;;;;;3.28;1.40;;;;;17.40;99873.00;;;;5007492;28;20201;-79
2022/09/26 07:35:28;;;;;;;2.10;1.10;;;;;17.40;99880.00;;;;5000201;28;20225;-79
2022/09/26 07:37:56;;;;;;;2.90;1.20;;;;;17.50;99872.00;;;;5003651;28;20205;-79
2022/09/26 07:40:23;;;;;;;4.30;1.35;;;;;17.50;99870.00;;;;5003075;28;20215;-79
2022/09/26 07:42:51;;;;;;;2.45;1.00;;;;;17.50;99867.00;;;;5006740;28;20212;-80
2022/09/26 07:50:09;;;;;;;2.65;1.60;;;;;17.50;99867.00;;;;5009075;28;20216;-79
2022/09/26 07:50:57;;;;;;;3.38;1.42;;;;;17.50;99862.00;;;;5003523;28;20205;-79
2022/09/26 07:53:25;;;;;;;3.40;1.40;;;;;17.50;99859.00;;;;4999037;28;20213;-80
2022/09/26 07:56:10;;;;;;;3.08;1.33;;;;;17.50;99853.00;;;;5009046;28;20725;-80
2022/09/26 07:58:38;;;;;;;2.88;1.23;;;;;17.50;99846.00;;;;5003407;28;20229;-79
2022/09/26 08:01:10;;;;;;;2.10;1.05;;;;;17.60;99845.00;;;;5005639;28;20642;-80
2022/09/26 08:03:37;;;;;;;5.90;1.50;;;;;17.60;99851.00;;;;5006710;28;20726;-80
2022/09/26 08:06:06;;;;;;;2.78;1.20;;;;;17.60;99843.00;;;;5007653;28;20209;-79
2022/09/26 08:08:34;;;;;;;4.00;1.27;;;;;17.60;99846.00;;;;5006649;28;20267;-79
2022/09/26 08:11:02;;;;;;;3.45;1.35;;;;;17.60;99836.00;;;;5007922;28;20201;-79
2022/09/26 08:13:32;;;;;;;3.00;1.40;;;;;17.60;99833.00;;;;5007787;28;20208;-79
2022/09/26 08:16:04;;;;;;;1.95;1.23;;;;;17.60;99823.00;;;;5008097;28;20601;-82
2022/09/26 08:18:33;;;;;;;2.13;1.20;;;;;17.70;99822.00;;;;5009037;28;20201;-79
2022/09/26 08:21:04;;;;;;;3.40;1.80;;;;;17.70;99812.00;;;;5005671;28;20667;-79
2022/09/26 08:23:33;;;;;;;3.63;1.60;;;;;17.70;99812.00;;;;5008337;28;20208;-81
2022/09/26 08:26:03;;;;;;;2.60;1.25;;;;;17.70;99809.00;;;;5005738;28;20201;-81
2022/09/26 08:28:30;;;;;;;2.60;1.40;;;;;17.70;99819.00;;;;5008914;28;20231;-82
2022/09/26 08:30:59;;;;;;;4.22;1.05;;;;;17.70;99802.00;;;;5008378;28;20201;-81
2022/09/26 08:33:26;;;;;;;1.67;1.13;;;;;17.80;99799.00;;;;5003277;28;21284;-82
2022/09/26 08:35:53;;;;;;;2.80;1.50;;;;;17.80;99804.00;;;;5002182;28;20221;-81
2022/09/26 08:38:21;;;;;;;5.82;1.65;;;;;17.80;99788.00;;;;5007704;28;20197;-82
2022/09/26 08:40:58;;;;;;;3.28;1.20;;;;;17.80;99793.00;;;;5005480;28;20690;-81
2022/09/26 08:43:39;;;;;;;3.55;1.42;;;;;17.80;99795.00;;;;5006719;28;20216;-85
2022/09/26 08:46:36;;;;;;;2.85;1.05;;;;;17.80;99795.00;;;;5003511;28;20212;-82
2022/09/26 08:49:24;;;;;;;2.85;1.10;;;;;17.70;99788.00;;;;5003640;28;20201;-82
2022/09/26 08:51:54;;;;;;;3.72;1.15;;;;;17.80;99787.00;;;;5002371;28;20235;-81
2022/09/26 08:54:31;;;;;;;2.25;1.27;;;;;17.80;99782.00;;;;5008881;28;20215;-83
2022/09/26 08:57:03;;;;;;;3.65;1.40;;;;;17.90;99773.00;;;;5008776;28;20228;-82
2022/09/26 08:59:35;;;;;;;2.33;1.00;;;;;17.90;99774.00;;;;5003633;28;20227;-81
2022/09/26 09:02:10;;;;;;;3.53;1.38;;;;;17.90;99774.00;;;;5006099;28;20197;-80
2022/09/26 09:04:44;;;;;;;2.60;1.45;;;;;17.90;99766.00;;;;5004113;28;20200;-81
2022/09/26 09:07:20;;;;;;;3.03;1.73;;;;;17.90;99767.00;;;;5007831;28;20197;-79
2022/09/26 09:09:48;;;;;;;3.90;1.60;;;;;17.90;99763.00;;;;5007156;28;20223;-81
2022/09/26 09:12:24;;;;;;;4.68;1.30;;;;;17.90;99757.00;;;;5004782;28;20209;-80
2022/09/26 09:15:06;;;;;;;1.83;0.95;;;;;17.90;99750.00;;;;5005180;28;20203;-81
2022/09/26 09:17:42;;;;;;;2.20;1.02;;;;;17.90;99747.00;;;;4999037;28;20233;-81
2022/09/26 09:20:18;;;;;;;2.03;1.50;;;;;17.90;99741.00;;;;5000628;28;20685;-81
2022/09/26 09:23:07;;;;;;;7.88;1.20;;;;;17.80;99739.00;;;;5004626;28;20197;-80
2022/09/26 09:25:41;;;;;;;3.90;1.15;;;;;17.80;99735.00;;;;5007958;28;20272;-79
2022/09/26 09:28:21;;;;;;;4.63;1.05;;;;;17.80;99733.00;;;;5006522;28;20199;-80
2022/09/26 09:30:51;;;;;;;1.98;1.00;;;;;17.90;99734.00;;;;5003149;28;20221;-79
2022/09/26 09:33:21;;;;;;;5.50;1.45;;;;;17.90;99727.00;;;;5004426;28;20205;-78
2022/09/26 09:35:52;;;;;;;2.60;1.10;;;;;17.90;99723.00;;;;5003457;28;20295;-79
2022/09/26 09:38:23;;;;;;;3.97;1.13;;;;;17.90;99719.00;;;;5008090;28;20679;-79
2022/09/26 09:40:57;;;;;;;3.75;1.48;;;;;17.90;99705.00;;;;5004582;28;20197;-79
2022/09/26 09:43:31;;;;;;;2.75;1.20;;;;;17.90;99711.00;;;;5006554;28;20682;-79
2022/09/26 09:46:04;;;;;;;2.13;1.27;;;;;17.90;99701.00;;;;5007415;28;20216;-80
2022/09/26 09:48:31;;;;;;;2.38;0.93;;;;;18.00;99696.00;;;;5007474;28;20199;-80
2022/09/26 09:51:12;;;;;;;1.92;1.30;;;;;17.90;99704.00;;;;4992941;28;20220;-79
2022/09/26 09:54:05;;;;;;;5.05;1.77;;;;;17.90;99690.00;;;;5003500;28;20284;-79
2022/09/26 09:56:42;;;;;;;4.45;1.30;;;;;18.00;99695.00;;;;4994264;28;20225;-79
2022/09/26 09:59:30;;;;;;;3.00;1.60;;;;;17.90;99690.00;;;;5005453;28;20233;-79
2022/09/26 10:02:10;;;;;;;2.17;1.13;;;;;18.00;99679.00;;;;5004750;28;20212;-80
2022/09/26 10:04:45;;;;;;;2.10;1.35;;;;;18.00;99674.00;;;;5008119;28;20193;-80
2022/09/26 10:07:12;;;;;;;1.70;1.17;;;;;18.10;99678.00;;;;5004671;28;20200;-79
2022/09/26 10:09:42;;;;;;;3.08;1.73;;;;;18.10;99679.00;;;;4993045;28;20200;-82
2022/09/26 10:12:15;;;;;;;2.22;1.20;;;;;18.10;99676.00;;;;5007302;28;20300;-80
2022/09/26 10:14:49;;;;;;;1.88;1.25;;;;;18.10;99669.00;;;;5005944;28;20292;-83
2022/09/26 10:17:19;;;;;;;2.58;1.30;;;;;18.10;99670.00;;;;5005985;28;20225;-80
2022/09/26 10:19:47;;;;;;;3.60;1.80;;;;;18.10;99665.00;;;;5006762;28;20228;-80
2022/09/26 10:22:32;;;;;;;2.80;1.30;;;;;18.00;99681.00;;;;5006637;28;20267;-81
2022/09/26 10:25:03;;;;;;;1.80;1.42;;;;;18.10;99667.00;;;;5001765;28;20216;-81
2022/09/26 10:27:36;;;;;;;3.17;1.73;;;;;18.00;99658.00;;;;5004512;28;20193;-79
2022/09/26 10:30:25;;;;;;;2.65;1.15;;;;;18.10;99659.00;;;;5006511;28;20200;-79
2022/09/26 10:32:57;;;;;;;3.78;1.42;;;;;18.10;99654.00;;;;5009824;28;20260;-79
2022/09/26 10:35:28;;;;;;;1.55;1.30;;;;;18.10;99662.00;;;;5017719;28;20654;-82
2022/09/26 10:38:01;;;;;;;1.70;1.40;;;;;18.00;99656.00;;;;5008619;28;20317;-80
2022/09/26 10:40:44;;;;;;;3.33;1.50;;;;;18.10;99657.00;;;;5005853;28;20205;-78
2022/09/26 10:43:29;;;;;;;2.45;1.38;;;;;18.00;99654.00;;;;5005173;28;20596;-82
2022/09/26 10:46:04;;;;;;;4.05;1.55;;;;;18.00;99650.00;;;;5010411;28;20200;-81
2022/09/26 10:48:46;;;;;;;3.00;1.20;;;;;18.00;99650.00;;;;5010170;28;20189;-79
2022/09/26 10:51:18;;;;;;;4.28;1.60;;;;;18.00;99642.00;;;;5007786;28;20201;-81
2022/09/26 10:53:50;;;;;;;1.95;1.27;;;;;18.10;99647.00;;;;5009276;28;20196;-81
2022/09/26 10:56:24;;;;;;;1.70;1.40;;;;;18.00;99650.00;;;;5007630;28;20197;-81
2022/09/26 10:58:56;;;;;;;2.53;1.52;;;;;18.10;99642.00;;;;5008624;28;20235;-82
2022/09/26 11:01:28;;;;;;;3.70;1.70;;;;;18.00;99642.00;;;;5007758;28;20248;-82
2022/09/26 11:03:59;;;;;;;2.67;1.58;;;;;18.00;99640.00;;;;5006988;28;20613;-81
2022/09/26 11:06:30;;;;;;;2.70;1.30;;;;;18.00;99643.00;;;;5006787;28;20220;-82
2022/09/26 11:09:01;;;;;;;2.08;1.33;;;;;18.00;99646.00;;;;5008261;28;20197;-81
2022/09/26 11:11:33;;;;;;;4.22;1.58;;;;;18.00;99638.00;;;;5007678;28;20297;-80
2022/09/26 11:14:04;;;;;;;3.15;2.03;;;;;18.00;99638.00;;;;5008716;28;20619;-81
2022/09/26 11:16:50;;;;;;;2.47;1.85;;;;;17.90;99647.00;;;;4990761;28;20260;-82
2022/09/26 11:19:26;;;;;;;1.50;1.40;;;;;18.00;99632.00;;;;5002198;28;20216;-80
2022/09/26 11:22:00;;;;;;;2.97;1.38;;;;;17.90;99628.00;;;;5009213;28;20220;-80
2022/09/26 11:24:36;;;;;;;1.90;1.27;;;;;18.00;99631.00;;;;5006985;28;20204;-82
2022/09/26 11:27:14;;;;;;;1.75;1.08;;;;;18.00;99636.00;;;;5009078;28;20287;-82
2022/09/26 11:29:47;;;;;;;1.60;0.90;;;;;17.90;99628.00;;;;5007284;28;20597;-81
2022/09/26 11:32:23;;;;;;;2.80;1.10;;;;;17.90;99628.00;;;;5005934;28;20201;-82
2022/09/26 11:34:53;;;;;;;1.10;0.93;;;;;18.00;99620.00;;;;5009925;28;20204;-80
2022/09/26 11:37:42;;;;;;;1.50;0.95;;;;;17.90;99622.00;;;;5006938;28;20224;-80
2022/09/26 11:40:31;;;;;;;1.55;1.15;;;;;17.90;99615.00;;;;5006279;28;20223;-80
2022/09/26 11:43:24;;;;;;;2.45;1.10;;;;;17.90;99614.00;;;;4996611;28;20206;-80
2022/09/26 11:46:13;;;;;;;1.10;0.85;;;;;17.90;99605.00;;;;4997321;28;20202;-80
2022/09/26 11:48:59;;;;;;;2.78;1.17;;;;;17.90;99617.00;;;;4996083;28;20224;-81
2022/09/26 11:51:41;;;;;;;1.38;0.98;;;;;17.90;99604.00;;;;5007259;28;20604;-81
2022/09/26 11:54:34;;;;;;;2.13;1.10;;;;;17.90;99610.00;;;;5009256;28;20204;-81
2022/09/26 11:57:13;;;;;;;2.22;1.15;;;;;17.90;99608.00;;;;5001210;28;20221;-80
2022/09/26 11:59:57;;;;;;;1.80;1.05;;;;;17.90;99609.00;;;;5004949;28;20228;-80
2022/09/26 12:02:47;;;;;;;1.75;1.00;;;;;17.90;99608.00;;;;5006361;28;20259;-82
2022/09/26 12:05:29;;;;;;;1.00;0.90;;;;;17.90;99605.00;;;;5006684;28;20674;-80
2022/09/26 12:08:10;;;;;;;2.70;1.10;;;;;18.00;99605.00;;;;5007838;28;20201;-81
2022/09/26 12:10:47;;;;;;;2.17;1.20;;;;;18.00;99595.00;;;;5005691;28;20746;-80
2022/09/26 12:13:28;;;;;;;0.88;0.85;;;;;18.00;99591.00;;;;5005939;28;20230;-79
2022/09/26 12:16:02;;;;;;;1.83;1.20;;;;;18.10;99593.00;;;;5006078;28;20201;-80
2022/09/26 12:18:38;;;;;;;1.27;0.95;;;;;18.10;99585.00;;;;5021389;28;20216;-79
2022/09/26 12:21:21;;;;;;;1.70;1.33;;;;;18.00;99586.00;;;;5008951;28;20193;-80
2022/09/26 12:23:52;;;;;;;2.53;1.70;;;;;18.10;99580.00;;;;4995159;28;20212;-79
2022/09/26 12:26:24;;;;;;;2.05;1.15;;;;;18.10;99576.00;;;;5010747;28;20439;-80
2022/09/26 12:29:05;;;;;;;3.00;1.20;;;;;18.10;99575.00;;;;5005746;28;20212;-79
2022/09/26 12:31:47;;;;;;;2.75;1.40;;;;;18.10;99568.00;;;;5006392;28;20216;-81
2022/09/26 12:34:36;;;;;;;1.20;1.10;;;;;18.10;99568.00;;;;5006402;28;20283;-82
2022/09/26 12:37:13;;;;;;;1.75;1.15;;;;;18.10;99556.00;;;;5005532;28;20680;-81
2022/09/26 12:40:00;;;;;;;1.10;1.00;;;;;18.10;99557.00;;;;5010353;28;20232;-80
2022/09/26 12:42:41;;;;;;;1.60;1.38;;;;;18.10;99551.00;;;;5008124;28;20208;-80
2022/09/26 12:45:34;;;;;;;1.30;1.08;;;;;18.10;99549.00;;;;5008726;28;20238;-80
2022/09/26 12:48:18;;;;;;;0.90;0.85;;;;;18.10;99541.00;;;;5004238;28;20205;-80